createdAt,value
2022-08-18T00:01:10.455Z,4.30
2022-08-18T00:03:56.552Z,4.40
2022-08-18T00:06:30.296Z,4.47
2022-08-18T00:08:59.610Z,4.47
2022-08-18T00:11:41.551Z,4.25
2022-08-18T00:14:13.747Z,4.68
2022-08-18T00:16:50.146Z,3.95
2022-08-18T00:19:18.966Z,4.90
2022-08-18T00:21:47.304Z,5.03
2022-08-18T00:24:15.680Z,4.50
2022-08-18T00:26:48.729Z,4.40
2022-08-18T00:29:17.278Z,4.78
2022-08-18T00:31:47.316Z,4.53
2022-08-18T00:34:15.633Z,4.88
2022-08-18T00:36:43.936Z,5.00
2022-08-18T00:39:14.449Z,4.20
2022-08-18T00:41:45.357Z,4.38
2022-08-18T00:44:16.569Z,4.40
2022-08-18T00:46:48.374Z,4.90
2022-08-18T00:49:18.470Z,5.18
2022-08-18T00:51:48.596Z,4.32
2022-08-18T00:54:19.053Z,4.95
2022-08-18T00:56:50.845Z,4.65
2022-08-18T00:59:22.559Z,4.85
2022-08-18T01:01:53.124Z,4.70
2022-08-18T01:04:24.667Z,5.22
2022-08-18T01:06:57.062Z,4.88
2022-08-18T01:09:25.652Z,4.45
2022-08-18T01:11:56.477Z,4.80
2022-08-18T01:14:24.878Z,4.53
2022-08-18T01:17:11.030Z,4.63
2022-08-18T01:19:57.335Z,4.45
2022-08-18T01:22:31.978Z,5.05
2022-08-18T01:25:20.000Z,4.72
2022-08-18T01:27:48.545Z,4.47
2022-08-18T01:30:18.285Z,4.80
2022-08-18T01:32:46.925Z,4.63
2022-08-18T01:35:18.666Z,5.00
2022-08-18T01:37:47.153Z,4.95
2022-08-18T01:41:22.074Z,4.47
2022-08-18T01:43:07.978Z,4.82
2022-08-18T01:45:36.383Z,4.85
2022-08-18T01:48:05.325Z,4.93
2022-08-18T01:50:35.184Z,5.18
2022-08-18T01:53:05.637Z,5.03
2022-08-18T01:55:35.516Z,5.05
2022-08-18T01:58:04.045Z,4.97
2022-08-18T02:00:33.687Z,4.93
2022-08-18T02:03:03.244Z,4.70
2022-08-18T02:05:33.964Z,5.22
2022-08-18T02:08:02.244Z,4.68
2022-08-18T02:10:30.553Z,5.03
2022-08-18T02:13:00.232Z,5.38
2022-08-18T02:15:28.953Z,4.93
2022-08-18T02:17:57.259Z,4.90
2022-08-18T02:20:26.298Z,5.03
2022-08-18T02:22:54.653Z,4.93
2022-08-18T02:25:23.297Z,5.00
2022-08-18T02:27:52.117Z,5.30
2022-08-18T02:30:22.169Z,5.00
2022-08-18T02:32:50.850Z,5.47
2022-08-18T02:35:19.692Z,5.57
2022-08-18T02:37:48.239Z,5.45
2022-08-18T02:40:17.013Z,4.95
2022-08-18T02:42:45.674Z,5.18
2022-08-18T02:45:14.692Z,5.78
2022-08-18T02:47:45.014Z,5.70
2022-08-18T02:50:13.505Z,5.78
2022-08-18T02:52:41.908Z,5.85
2022-08-18T02:55:10.734Z,5.57
2022-08-18T02:57:43.482Z,5.80
2022-08-18T03:00:14.657Z,6.07
2022-08-18T03:02:47.199Z,6.43
2022-08-18T03:05:15.588Z,5.88
2022-08-18T03:07:43.945Z,6.35
2022-08-18T03:10:32.679Z,6.60
2022-08-18T03:13:02.381Z,5.80
2022-08-18T03:15:30.789Z,6.65
2022-08-18T03:18:02.347Z,6.45
2022-08-18T03:20:31.633Z,6.38
2022-08-18T03:23:09.545Z,7.38
2022-08-18T03:25:38.420Z,6.47
2022-08-18T03:28:07.102Z,6.55
2022-08-18T03:30:35.538Z,6.43
2022-08-18T03:33:05.499Z,6.35
2022-08-18T03:35:34.597Z,6.82
2022-08-18T03:38:02.865Z,7.05
2022-08-18T03:40:31.218Z,6.20
2022-08-18T03:42:59.523Z,7.03
2022-08-18T03:45:31.965Z,6.70
2022-08-18T03:48:00.717Z,6.40
2022-08-18T03:50:32.139Z,6.25
2022-08-18T03:53:00.425Z,6.88
2022-08-18T03:55:29.253Z,6.72
2022-08-18T03:58:02.803Z,7.30
2022-08-18T04:00:31.986Z,7.05
2022-08-18T04:03:00.469Z,6.72
2022-08-18T04:05:30.504Z,6.85
2022-08-18T04:07:58.824Z,6.90
2022-08-18T04:10:27.091Z,6.78
2022-08-18T04:12:55.531Z,6.70
2022-08-18T04:15:24.029Z,8.00
2022-08-18T04:18:03.099Z,7.75
2022-08-18T04:20:34.072Z,8.45
2022-08-18T04:23:02.514Z,8.57
2022-08-18T04:25:33.173Z,8.48
2022-08-18T04:28:03.662Z,9.30
2022-08-18T04:30:32.374Z,9.60
2022-08-18T04:33:06.442Z,9.18
2022-08-18T04:35:36.018Z,8.85
2022-08-18T04:38:04.266Z,9.77
2022-08-18T04:40:34.183Z,9.80
2022-08-18T04:43:02.771Z,9.73
2022-08-18T04:45:31.116Z,9.07
2022-08-18T04:47:59.388Z,9.50
2022-08-18T04:50:27.643Z,10.15
2022-08-18T04:53:14.735Z,10.68
2022-08-18T04:55:48.319Z,10.73
2022-08-18T04:58:17.341Z,11.43
2022-08-18T05:00:46.051Z,10.55
2022-08-18T05:03:14.996Z,10.25
2022-08-18T05:05:43.267Z,10.48
2022-08-18T05:08:12.910Z,10.90
2022-08-18T05:10:41.432Z,10.43
2022-08-18T05:13:09.809Z,9.82
2022-08-18T05:16:07.128Z,9.63
2022-08-18T05:18:28.632Z,9.82
2022-08-18T05:20:57.541Z,9.70
2022-08-18T05:23:30.225Z,9.73
2022-08-18T05:25:59.200Z,9.45
2022-08-18T05:28:28.339Z,8.63
2022-08-18T05:30:57.598Z,8.88
2022-08-18T05:33:29.101Z,9.27
2022-08-18T05:36:04.504Z,9.02
2022-08-18T05:38:39.531Z,8.80
2022-08-18T05:41:13.616Z,9.23
2022-08-18T05:43:51.202Z,9.02
2022-08-18T05:46:21.791Z,9.20
2022-08-18T05:48:51.290Z,10.07
2022-08-18T05:51:22.116Z,10.38
2022-08-18T05:54:09.439Z,9.40
2022-08-18T05:56:48.595Z,9.73
2022-08-18T05:59:20.046Z,8.70
2022-08-18T06:01:51.681Z,8.80
2022-08-18T06:04:25.361Z,8.35
2022-08-18T06:06:55.146Z,8.00
2022-08-18T06:09:27.201Z,7.03
2022-08-18T06:11:58.275Z,7.60
2022-08-18T06:14:26.827Z,7.82
2022-08-18T06:17:00.946Z,7.75
2022-08-18T06:19:36.288Z,7.63
2022-08-18T06:22:09.992Z,7.13
2022-08-18T06:24:43.939Z,6.53
2022-08-18T06:27:16.217Z,6.38
2022-08-18T06:29:52.888Z,7.15
2022-08-18T06:32:26.459Z,6.35
2022-08-18T06:35:02.906Z,6.32
2022-08-18T06:37:32.745Z,8.00
2022-08-18T06:40:04.599Z,6.35
2022-08-18T06:42:34.876Z,6.70
2022-08-18T06:45:11.634Z,8.07
2022-08-18T06:47:45.459Z,7.78
2022-08-18T06:50:21.478Z,8.63
2022-08-18T06:52:54.634Z,8.55
2022-08-18T06:55:34.433Z,8.73
2022-08-18T06:58:05.549Z,8.32
2022-08-18T07:00:35.163Z,9.25
2022-08-18T07:03:08.063Z,6.20
2022-08-18T07:05:40.505Z,6.40
2022-08-18T07:08:14.556Z,6.30
2022-08-18T07:10:45.758Z,5.13
2022-08-18T07:13:18.810Z,5.80
2022-08-18T07:15:48.427Z,5.07
2022-08-18T07:18:23.405Z,4.45
2022-08-18T07:20:53.894Z,4.43
2022-08-18T07:23:24.695Z,4.50
2022-08-18T07:26:00.429Z,3.50
2022-08-18T07:28:29.896Z,3.40
2022-08-18T07:31:17.050Z,3.30
2022-08-18T07:33:49.615Z,3.13
2022-08-18T07:36:19.633Z,3.47
2022-08-18T07:38:50.338Z,2.70
2022-08-18T07:41:21.634Z,3.28
2022-08-18T07:43:55.594Z,3.30
2022-08-18T07:46:28.157Z,2.45
2022-08-18T07:48:57.996Z,2.50
2022-08-18T07:51:43.702Z,2.28
2022-08-18T07:54:47.108Z,2.10
2022-08-18T07:57:19.223Z,2.40
2022-08-18T07:59:51.616Z,2.13
2022-08-18T08:02:23.917Z,2.17
2022-08-18T08:04:58.193Z,2.15
2022-08-18T08:07:31.164Z,2.00
2022-08-18T08:10:05.031Z,2.10
2022-08-18T08:12:38.128Z,2.38
2022-08-18T08:15:13.687Z,2.20
2022-08-18T08:17:45.391Z,2.00
2022-08-18T08:20:16.665Z,1.92
2022-08-18T08:22:52.441Z,2.35
2022-08-18T08:25:45.032Z,2.45
2022-08-18T08:28:21.996Z,2.00
2022-08-18T08:30:55.299Z,2.38
2022-08-18T08:33:26.510Z,2.35
2022-08-18T08:36:00.362Z,1.80
2022-08-18T08:38:42.986Z,1.75
2022-08-18T08:41:14.822Z,1.88
2022-08-18T08:43:47.289Z,1.90
2022-08-18T08:46:18.999Z,1.63
2022-08-18T08:48:51.244Z,1.90
2022-08-18T08:51:30.231Z,1.60
2022-08-18T08:54:03.607Z,1.35
2022-08-18T08:56:35.507Z,1.60
2022-08-18T08:59:07.243Z,1.23
2022-08-18T09:01:39.276Z,1.20
2022-08-18T09:04:19.334Z,1.48
2022-08-18T09:06:53.221Z,1.60
2022-08-18T09:09:28.323Z,1.75
2022-08-18T09:12:20.579Z,1.05
2022-08-18T09:14:56.543Z,1.40
2022-08-18T09:17:47.459Z,1.52
2022-08-18T09:20:26.109Z,1.30
2022-08-18T09:22:55.904Z,1.42
2022-08-18T09:25:34.339Z,1.30
2022-08-18T09:28:11.903Z,1.40
2022-08-18T09:30:47.468Z,1.10
2022-08-18T09:33:32.542Z,1.27
2022-08-18T09:36:10.246Z,1.30
2022-08-18T09:38:58.199Z,1.25
2022-08-18T09:41:34.146Z,1.20
2022-08-18T09:44:18.049Z,1.50
2022-08-18T09:46:58.617Z,1.30
2022-08-18T09:52:55.716Z,1.20
2022-08-18T09:55:57.955Z,1.30
2022-08-18T09:58:48.363Z,1.33
2022-08-18T10:01:33.153Z,1.50
2022-08-18T10:04:29.216Z,1.40
2022-08-18T10:07:15.669Z,1.30
2022-08-18T10:09:49.688Z,1.20
2022-08-18T10:12:36.407Z,1.33
2022-08-18T10:15:10.895Z,1.38
2022-08-18T10:17:50.188Z,1.42
2022-08-18T10:20:26.736Z,1.45
2022-08-18T10:22:57.428Z,1.40
2022-08-18T10:25:34.879Z,1.60
2022-08-18T10:28:06.242Z,1.25
2022-08-18T10:31:06.172Z,1.48
2022-08-18T10:34:01.437Z,1.42
2022-08-18T10:36:43.736Z,1.77
2022-08-18T10:39:12.963Z,1.50
2022-08-18T10:41:50.748Z,1.98
2022-08-18T10:44:29.146Z,1.90
2022-08-18T10:47:00.674Z,1.50
2022-08-18T10:49:31.919Z,1.95
2022-08-18T10:52:09.776Z,2.08
2022-08-18T10:54:51.891Z,1.80
2022-08-18T10:57:29.302Z,2.08
2022-08-18T11:00:01.428Z,1.52
2022-08-18T11:02:42.523Z,1.58
2022-08-18T11:05:12.868Z,1.77
2022-08-18T11:07:44.902Z,1.40
2022-08-18T11:10:57.752Z,1.80
2022-08-18T11:13:10.789Z,1.20
2022-08-18T11:15:44.416Z,1.58
2022-08-18T11:18:19.228Z,1.50
2022-08-18T11:20:48.590Z,1.63
2022-08-18T11:23:18.946Z,1.45
2022-08-18T11:25:48.376Z,1.15
2022-08-18T11:28:18.764Z,1.48
2022-08-18T11:30:47.951Z,1.65
2022-08-18T11:33:22.693Z,1.55
2022-08-18T11:35:54.484Z,1.92
2022-08-18T11:38:24.227Z,1.75
2022-08-18T11:41:13.626Z,1.80
2022-08-18T11:43:46.631Z,1.70
2022-08-18T11:46:28.201Z,1.77
2022-08-18T11:49:00.655Z,1.67
2022-08-18T11:51:30.428Z,1.45
2022-08-18T11:54:01.187Z,2.38
2022-08-18T11:56:31.642Z,1.70
2022-08-18T11:59:04.942Z,1.65
2022-08-18T12:04:25.742Z,1.60
2022-08-18T12:07:01.122Z,1.70
2022-08-18T12:10:15.948Z,1.80
2022-08-18T12:12:25.422Z,1.42
2022-08-18T12:15:04.922Z,1.40
2022-08-18T12:17:52.422Z,1.50
2022-08-18T12:20:21.831Z,1.90
2022-08-18T12:22:51.750Z,1.95
2022-08-18T12:25:24.939Z,1.60
2022-08-18T12:27:53.976Z,1.50
2022-08-18T12:30:22.372Z,1.70
2022-08-18T12:32:55.957Z,1.48
2022-08-18T12:35:26.260Z,1.58
2022-08-18T12:40:46.360Z,1.50
2022-08-18T12:43:14.669Z,1.40
2022-08-18T12:45:43.258Z,1.60
2022-08-18T12:48:11.961Z,1.30
2022-08-18T12:50:54.447Z,1.40
2022-08-18T12:53:29.532Z,1.40
2022-08-18T12:56:10.585Z,1.40
2022-08-18T12:58:40.593Z,1.30
2022-08-18T13:01:09.123Z,1.30
2022-08-18T13:03:38.763Z,1.55
2022-08-18T13:06:11.606Z,1.50
2022-08-18T13:08:48.068Z,1.67
2022-08-18T13:11:23.707Z,1.52
2022-08-18T13:13:56.719Z,1.73
2022-08-18T13:16:38.509Z,1.80
2022-08-18T13:19:14.635Z,1.65
2022-08-18T13:21:43.209Z,1.60
2022-08-18T13:24:12.506Z,1.40
2022-08-18T13:26:45.938Z,1.70
2022-08-18T13:29:15.441Z,1.52
2022-08-18T13:31:55.588Z,1.55
2022-08-18T13:34:27.494Z,1.50
2022-08-18T13:36:58.200Z,1.80
2022-08-18T13:39:31.287Z,1.70
2022-08-18T13:42:26.523Z,1.30
2022-08-18T13:44:54.980Z,1.50
2022-08-18T13:47:27.654Z,1.55
2022-08-18T13:49:58.165Z,1.70
2022-08-18T13:52:34.721Z,1.38
2022-08-18T13:55:08.087Z,1.63
2022-08-18T13:57:38.380Z,1.60
2022-08-18T14:00:12.225Z,1.55
2022-08-18T14:02:51.046Z,1.83
2022-08-18T14:05:20.503Z,1.63
2022-08-18T14:07:49.038Z,1.40
2022-08-18T14:10:17.760Z,1.80
2022-08-18T14:12:47.631Z,1.60
2022-08-18T14:15:18.186Z,1.88
2022-08-18T14:17:47.194Z,1.65
2022-08-18T14:20:34.744Z,1.90
2022-08-18T14:23:26.863Z,1.70
2022-08-18T14:26:19.100Z,1.30
2022-08-18T14:28:48.775Z,2.15
2022-08-18T14:31:23.096Z,1.33
2022-08-18T14:33:54.060Z,1.52
2022-08-18T14:36:29.774Z,1.58
2022-08-18T14:38:58.834Z,1.60
2022-08-18T14:41:27.533Z,1.70
2022-08-18T14:44:11.488Z,1.55
2022-08-18T14:46:52.479Z,1.30
2022-08-18T14:49:28.158Z,1.80
2022-08-18T14:51:57.854Z,1.65
2022-08-18T14:54:28.391Z,1.60
2022-08-18T14:56:57.208Z,1.30
2022-08-18T14:59:28.492Z,1.75
2022-08-18T15:01:57.216Z,1.60
2022-08-18T15:04:27.469Z,1.63
2022-08-18T15:06:57.490Z,1.60
2022-08-18T15:09:26.707Z,1.30
2022-08-18T15:11:56.327Z,1.67
2022-08-18T15:14:26.666Z,1.60
2022-08-18T15:17:02.737Z,1.00
2022-08-18T15:19:58.191Z,1.83
2022-08-18T15:22:37.031Z,1.30
2022-08-18T15:25:24.090Z,1.50
2022-08-18T15:27:52.991Z,1.30
2022-08-18T15:30:22.565Z,1.63
2022-08-18T15:32:52.428Z,1.35
2022-08-18T15:35:21.561Z,1.30
2022-08-18T15:37:54.078Z,1.40
2022-08-18T15:40:35.689Z,1.45
2022-08-18T15:43:10.574Z,1.60
2022-08-18T15:45:42.900Z,1.65
2022-08-18T15:48:21.474Z,1.60
2022-08-18T15:50:51.347Z,5.10
2022-08-18T15:53:20.740Z,1.75
2022-08-18T15:55:50.251Z,1.73
2022-08-18T15:58:22.599Z,1.90
2022-08-18T16:00:55.708Z,1.77
2022-08-18T16:03:25.400Z,2.08
2022-08-18T16:05:54.513Z,1.40
2022-08-18T16:08:23.549Z,1.40
2022-08-18T16:10:52.377Z,1.58
2022-08-18T16:13:21.673Z,1.60
2022-08-18T16:15:50.511Z,1.60
2022-08-18T16:18:20.333Z,1.85
2022-08-18T16:20:52.649Z,1.95
2022-08-18T16:23:25.014Z,1.25
2022-08-18T16:25:53.415Z,1.20
2022-08-18T16:28:21.698Z,0.95
2022-08-18T16:31:04.247Z,1.50
2022-08-18T16:33:32.558Z,1.23
2022-08-18T16:36:05.960Z,1.25
2022-08-18T16:38:34.346Z,1.20
2022-08-18T16:41:06.922Z,1.85
2022-08-18T16:43:35.296Z,1.60
2022-08-18T16:46:03.628Z,1.40
2022-08-18T16:48:34.584Z,1.30
2022-08-18T16:51:03.473Z,1.50
2022-08-18T16:53:40.261Z,1.60
2022-08-18T16:56:12.636Z,1.45
2022-08-18T16:58:58.392Z,1.67
2022-08-18T17:01:48.849Z,1.27
2022-08-18T17:04:20.795Z,0.98
2022-08-18T17:06:49.514Z,1.17
2022-08-18T17:09:19.988Z,1.50
2022-08-18T17:11:51.986Z,1.90
2022-08-18T17:14:20.911Z,1.40
2022-08-18T17:16:53.550Z,1.40
2022-08-18T17:19:22.098Z,1.42
2022-08-18T17:21:50.444Z,1.33
2022-08-18T17:24:31.431Z,1.02
2022-08-18T17:27:21.156Z,1.15
2022-08-18T17:30:00.553Z,1.30
2022-08-18T17:32:31.530Z,1.27
2022-08-18T17:35:03.869Z,1.33
2022-08-18T17:37:32.511Z,1.33
2022-08-18T17:40:05.421Z,1.30
2022-08-18T17:42:33.954Z,1.30
2022-08-18T17:45:05.035Z,1.13
2022-08-18T17:47:34.326Z,1.27
2022-08-18T17:50:28.337Z,1.30
2022-08-18T17:53:01.304Z,1.30
2022-08-18T17:55:33.137Z,1.50
2022-08-18T17:58:04.969Z,1.60
2022-08-18T18:00:33.542Z,1.40
2022-08-18T18:03:02.293Z,1.75
2022-08-18T18:05:34.122Z,1.83
2022-08-18T18:08:02.554Z,1.67
2022-08-18T18:10:51.034Z,1.70
2022-08-18T18:13:27.182Z,2.00
2022-08-18T18:15:56.679Z,2.67
2022-08-18T18:18:33.820Z,2.33
2022-08-18T18:21:05.806Z,2.13
2022-08-18T18:23:36.122Z,1.65
2022-08-18T18:26:20.951Z,1.50
2022-08-18T18:28:49.341Z,1.40
2022-08-18T18:31:20.006Z,1.52
2022-08-18T18:33:56.417Z,1.70
2022-08-18T18:36:32.911Z,1.55
2022-08-18T18:39:08.553Z,1.70
2022-08-18T18:41:40.907Z,2.00
2022-08-18T18:44:10.655Z,2.53
2022-08-18T18:46:44.272Z,2.20
2022-08-18T18:49:19.022Z,2.97
2022-08-18T18:51:52.452Z,2.83
2022-08-18T18:54:27.268Z,2.33
2022-08-18T18:56:58.002Z,2.67
2022-08-18T18:59:35.776Z,2.20
2022-08-18T19:02:33.435Z,2.10
2022-08-18T19:05:05.434Z,2.13
2022-08-18T19:07:37.956Z,2.17
2022-08-18T19:10:09.117Z,2.15
2022-08-18T19:12:44.732Z,2.30
2022-08-18T19:15:15.289Z,2.47
2022-08-18T19:17:46.535Z,2.38
2022-08-18T19:20:17.931Z,1.90
2022-08-18T19:22:49.086Z,2.50
2022-08-18T19:25:21.075Z,2.28
2022-08-18T19:27:56.178Z,1.85
2022-08-18T19:30:25.152Z,2.30
2022-08-18T19:32:54.943Z,2.50
2022-08-18T19:35:25.301Z,2.40
2022-08-18T19:38:20.973Z,2.38
2022-08-18T19:40:51.555Z,2.38
2022-08-18T19:43:27.758Z,2.30
2022-08-18T19:45:57.938Z,1.90
2022-08-18T19:48:29.168Z,2.08
2022-08-18T19:50:59.830Z,2.67
2022-08-18T19:53:49.262Z,2.28
2022-08-18T19:56:25.961Z,2.65
2022-08-18T19:59:18.653Z,2.70
2022-08-18T20:01:55.264Z,3.28
2022-08-18T20:04:28.935Z,2.70
2022-08-18T20:07:06.665Z,2.35
2022-08-18T20:09:40.044Z,2.92
2022-08-18T20:12:14.314Z,2.38
2022-08-18T20:14:44.239Z,2.50
2022-08-18T20:17:17.855Z,2.50
2022-08-18T20:19:48.687Z,2.45
2022-08-18T20:22:31.468Z,2.28
2022-08-18T20:25:06.269Z,2.30
2022-08-18T20:27:36.738Z,2.30
2022-08-18T20:30:32.528Z,2.00
2022-08-18T20:33:09.438Z,2.20
2022-08-18T20:35:40.905Z,2.28
2022-08-18T20:38:14.722Z,2.30
2022-08-18T20:40:45.034Z,2.90
2022-08-18T20:43:26.451Z,3.00
2022-08-18T20:45:57.195Z,2.83
2022-08-18T20:48:34.152Z,2.70
2022-08-18T20:51:10.227Z,2.55
2022-08-18T20:53:50.161Z,2.58
2022-08-18T20:56:32.571Z,2.30
2022-08-18T20:59:11.264Z,2.83
2022-08-18T21:01:40.364Z,2.70
2022-08-18T21:04:10.101Z,2.60
2022-08-18T21:06:42.021Z,2.92
2022-08-18T21:09:10.445Z,2.80
2022-08-18T21:11:41.496Z,2.38
2022-08-18T21:14:10.004Z,3.00
2022-08-18T21:16:40.359Z,2.95
2022-08-18T21:19:14.021Z,2.78
2022-08-18T21:21:46.230Z,2.90
2022-08-18T21:24:22.690Z,2.90
2022-08-18T21:26:51.484Z,2.88
2022-08-18T21:29:20.368Z,2.83
2022-08-18T21:31:48.781Z,3.25
2022-08-18T21:34:30.120Z,2.95
2022-08-18T21:36:59.256Z,3.30
2022-08-18T21:39:27.537Z,3.55
2022-08-18T21:41:57.123Z,2.85
2022-08-18T21:44:27.182Z,3.30
2022-08-18T21:47:05.777Z,3.63
2022-08-18T21:49:35.568Z,3.30
2022-08-18T21:52:04.433Z,2.80
2022-08-18T21:54:34.843Z,2.75
2022-08-18T21:57:19.586Z,2.92
2022-08-18T22:00:06.481Z,3.85
2022-08-18T22:02:34.911Z,3.20
2022-08-18T22:05:04.624Z,3.72
2022-08-18T22:07:35.687Z,3.72
2022-08-18T22:10:23.519Z,3.80
2022-08-18T22:13:11.885Z,3.45
2022-08-18T22:15:42.540Z,3.97
2022-08-18T22:18:31.572Z,4.00
2022-08-18T22:21:02.059Z,3.75
2022-08-18T22:24:03.487Z,3.42
2022-08-18T22:26:33.247Z,3.78
2022-08-18T22:29:04.211Z,3.47
2022-08-18T22:31:33.608Z,3.80
2022-08-18T22:34:03.256Z,3.65
2022-08-18T22:36:34.800Z,3.72
2022-08-18T22:39:03.345Z,4.00
2022-08-18T22:41:37.330Z,3.50
2022-08-18T22:44:06.869Z,3.63
2022-08-18T22:46:36.376Z,3.50
2022-08-18T22:49:04.735Z,3.47
2022-08-18T22:51:37.211Z,3.88
2022-08-18T22:54:08.369Z,3.85
2022-08-18T22:56:37.886Z,3.85
2022-08-18T22:59:13.576Z,3.75
2022-08-18T23:01:43.386Z,3.65
2022-08-18T23:04:11.743Z,4.20
2022-08-18T23:06:41.559Z,4.45
2022-08-18T23:09:09.955Z,4.55
2022-08-18T23:11:38.275Z,4.50
2022-08-18T23:14:06.893Z,4.65
2022-08-18T23:16:35.649Z,4.38
2022-08-18T23:19:03.925Z,4.65
2022-08-18T23:21:34.465Z,4.70
2022-08-18T23:24:05.774Z,5.13
2022-08-18T23:26:35.067Z,4.95
2022-08-18T23:29:03.847Z,5.22
2022-08-18T23:31:32.244Z,4.78
2022-08-18T23:34:00.745Z,5.25
2022-08-18T23:36:29.260Z,4.93
2022-08-18T23:38:57.657Z,5.30
2022-08-18T23:41:27.426Z,5.15
2022-08-18T23:43:55.888Z,5.40
2022-08-18T23:46:25.844Z,5.10
2022-08-18T23:48:55.297Z,5.10
2022-08-18T23:51:28.993Z,5.13
2022-08-18T23:53:58.876Z,4.68
2022-08-18T23:56:29.788Z,4.90
2022-08-18T23:58:58.538Z,5.00
